createdAt,value
2022-09-07T00:00:29.754Z,95507.00
2022-09-07T00:02:59.576Z,95507.19
2022-09-07T00:05:30.176Z,95505.78
2022-09-07T00:08:00.912Z,95504.09
2022-09-07T00:10:31.977Z,95501.22
2022-09-07T00:13:01.663Z,95506.56
2022-09-07T00:15:31.412Z,95503.25
2022-09-07T00:18:01.540Z,95503.75
2022-09-07T00:20:31.198Z,95496.09
2022-09-07T00:23:00.908Z,95496.59
2022-09-07T00:25:32.252Z,95499.81
2022-09-07T00:28:02.004Z,95510.38
2022-09-07T00:30:31.883Z,95505.75
2022-09-07T00:33:01.656Z,95511.38
2022-09-07T00:35:31.248Z,95511.25
2022-09-07T00:38:00.850Z,95512.22
2022-09-07T00:40:31.817Z,95503.28
2022-09-07T00:43:01.720Z,95509.81
2022-09-07T00:45:31.426Z,95502.66
2022-09-07T00:48:07.457Z,95513.44
2022-09-07T01:55:18.660Z,95506.00
2022-09-07T01:57:56.499Z,95503.59
2022-09-07T02:00:26.710Z,95500.16
2022-09-07T02:03:04.066Z,95489.19
2022-09-07T02:05:41.165Z,95493.50
2022-09-07T02:08:15.476Z,95495.59
2022-09-07T02:10:55.825Z,95487.34
2022-09-07T02:13:35.432Z,95499.31
2022-09-07T02:17:19.142Z,95487.66
2022-09-07T02:24:38.257Z,95480.59
2022-09-07T02:29:02.222Z,95469.25
2022-09-07T02:31:32.385Z,95488.25
2022-09-07T02:34:03.067Z,95487.75
2022-09-07T02:36:41.036Z,95489.97
2022-09-07T02:39:11.020Z,95490.09
2022-09-07T02:41:43.983Z,95482.88
2022-09-07T02:44:20.852Z,95486.69
2022-09-07T02:47:15.227Z,95488.09
2022-09-07T02:50:30.682Z,95488.25
2022-09-07T02:53:33.726Z,95489.44
2022-09-07T02:56:23.369Z,95494.88
2022-09-07T02:59:07.653Z,95508.56
2022-09-07T03:02:52.126Z,95499.91
2022-09-07T03:14:16.567Z,95502.34
2022-09-07T03:16:50.703Z,95498.63
2022-09-07T03:19:20.797Z,95498.13
2022-09-07T03:21:50.543Z,95496.69
2022-09-07T03:24:20.702Z,95497.63
2022-09-07T03:26:51.938Z,95500.94
2022-09-07T03:29:21.827Z,95504.59
2022-09-07T03:31:52.904Z,95502.78
2022-09-07T03:34:22.727Z,95493.84
2022-09-07T03:36:52.471Z,95497.44
2022-09-07T03:39:23.851Z,95490.91
2022-09-07T03:41:53.671Z,95494.75
2022-09-07T03:44:23.639Z,95501.28
2022-09-07T03:46:54.755Z,95499.06
2022-09-07T03:49:24.571Z,95502.28
2022-09-07T03:51:54.339Z,95494.94
2022-09-07T03:54:24.138Z,95496.84
2022-09-07T03:56:53.953Z,95505.78
2022-09-07T03:59:23.616Z,95505.00
2022-09-07T04:01:54.810Z,95510.91
2022-09-07T04:04:24.558Z,95498.97
2022-09-07T04:06:54.358Z,95502.66
2022-09-07T04:09:24.072Z,95495.50
2022-09-07T04:11:53.898Z,95496.50
2022-09-07T04:14:23.942Z,95494.59
2022-09-07T04:16:55.104Z,95504.34
2022-09-07T04:19:25.127Z,95502.75
2022-09-07T04:21:55.182Z,95508.47
2022-09-07T04:24:24.890Z,95509.56
2022-09-07T04:26:54.548Z,95504.44
2022-09-07T04:29:24.362Z,95515.00
2022-09-07T04:31:55.526Z,95509.28
2022-09-07T04:34:25.452Z,95501.13
2022-09-07T04:36:55.152Z,95504.03
2022-09-07T04:39:25.134Z,95502.13
2022-09-07T04:41:55.031Z,95503.75
2022-09-07T04:44:24.724Z,95509.97
2022-09-07T04:46:55.863Z,95504.53
2022-09-07T04:49:25.555Z,95505.34
2022-09-07T04:51:55.394Z,95518.13
2022-09-07T04:54:26.494Z,95524.03
2022-09-07T04:56:56.171Z,95525.06
2022-09-07T04:59:25.916Z,95513.09
2022-09-07T05:01:57.315Z,95502.72
2022-09-07T05:04:27.087Z,95508.84
2022-09-07T05:06:57.070Z,95494.16
2022-09-07T05:09:26.729Z,95509.81
2022-09-07T05:11:56.544Z,95532.25
2022-09-07T05:14:26.945Z,95519.16
2022-09-07T05:16:58.192Z,95514.84
2022-09-07T05:19:28.094Z,95529.59
2022-09-07T05:21:59.418Z,95521.06
2022-09-07T05:24:29.311Z,95535.75
2022-09-07T05:27:01.732Z,95538.66
2022-09-07T05:32:22.828Z,95543.28
2022-09-07T05:34:53.618Z,95548.44
2022-09-07T05:37:24.083Z,95552.56
2022-09-07T05:39:56.914Z,95556.06
2022-09-07T05:42:26.813Z,95556.56
2022-09-07T05:44:56.579Z,95567.13
2022-09-07T05:47:27.906Z,95575.78
2022-09-07T05:49:57.768Z,95579.31
2022-09-07T05:52:27.694Z,95590.66
2022-09-07T05:55:07.769Z,95593.88
2022-09-07T05:57:47.370Z,95597.09
2022-09-07T06:00:17.686Z,95596.50
2022-09-07T06:02:49.104Z,95588.81
2022-09-07T06:05:18.904Z,95595.84
2022-09-07T06:07:49.224Z,95595.84
2022-09-07T06:13:09.526Z,95590.31
2022-09-07T06:15:39.192Z,95589.22
2022-09-07T06:18:10.136Z,95599.16
2022-09-07T06:20:39.769Z,95596.25
2022-09-07T06:23:09.363Z,95600.81
2022-09-07T06:25:38.938Z,95601.59
2022-09-07T06:28:08.486Z,95599.22
2022-09-07T06:30:38.057Z,95591.94
2022-09-07T06:33:09.065Z,95597.94
2022-09-07T06:35:38.616Z,95596.84
2022-09-07T06:38:08.230Z,95597.72
2022-09-07T06:40:37.794Z,95600.38
2022-09-07T06:43:07.328Z,95593.66
2022-09-07T06:45:36.975Z,95591.19
2022-09-07T06:48:06.632Z,95586.56
2022-09-07T06:50:38.306Z,95591.06
2022-09-07T06:55:57.749Z,95604.69
2022-09-07T06:58:28.645Z,95606.97
2022-09-07T07:00:58.408Z,95603.66
2022-09-07T07:03:29.642Z,95600.31
2022-09-07T07:06:00.720Z,95593.16
2022-09-07T07:08:30.535Z,95603.56
2022-09-07T07:11:05.223Z,95600.72
2022-09-07T07:13:35.809Z,95606.50
2022-09-07T07:16:07.206Z,95610.88
2022-09-07T07:18:37.770Z,95616.00
2022-09-07T07:21:11.835Z,95625.47
2022-09-07T07:23:42.508Z,95623.53
2022-09-07T07:26:16.396Z,95624.19
2022-09-07T07:29:03.718Z,95625.16
2022-09-07T07:31:35.023Z,95630.78
2022-09-07T07:34:04.691Z,95630.13
2022-09-07T07:36:36.029Z,95634.59
2022-09-07T07:39:06.703Z,95632.03
2022-09-07T07:44:26.017Z,95631.41
2022-09-07T07:46:55.656Z,95625.63
2022-09-07T07:49:25.556Z,95622.09
2022-09-07T07:54:46.877Z,95620.78
2022-09-07T07:57:18.934Z,95630.09
2022-09-07T07:59:48.460Z,95631.22
2022-09-07T08:02:18.784Z,95627.38
2022-09-07T08:04:48.387Z,95625.88
2022-09-07T08:07:19.825Z,95626.25
2022-09-07T08:09:49.986Z,95621.56
2022-09-07T08:12:21.295Z,95618.19
2022-09-07T08:14:51.007Z,95615.88
2022-09-07T08:17:20.628Z,95618.91
2022-09-07T08:19:50.962Z,95618.28
2022-09-07T08:22:21.705Z,95609.53
2022-09-07T08:24:51.345Z,95615.47
2022-09-07T08:27:21.100Z,95619.16
2022-09-07T08:29:51.540Z,95614.16
2022-09-07T08:32:20.972Z,95615.59
2022-09-07T08:34:50.325Z,95612.22
2022-09-07T08:37:21.341Z,95605.75
2022-09-07T08:39:50.743Z,95601.66
2022-09-07T08:42:47.541Z,95600.94
2022-09-07T08:45:27.350Z,95598.56
2022-09-07T08:47:57.037Z,95603.88
2022-09-07T08:50:34.689Z,95600.00
2022-09-07T08:53:14.031Z,95596.34
2022-09-07T08:55:52.861Z,95598.66
2022-09-07T08:58:48.097Z,95585.00
2022-09-07T09:01:36.700Z,95594.28
2022-09-07T09:04:17.846Z,95584.59
2022-09-07T09:07:06.888Z,95587.50
2022-09-07T09:10:13.811Z,95587.66
2022-09-07T09:13:03.432Z,95592.09
2022-09-07T09:15:51.737Z,95589.00
2022-09-07T09:18:48.808Z,95586.47
2022-09-07T09:21:20.604Z,95591.81
2022-09-07T09:23:55.021Z,95591.00
2022-09-07T09:26:28.899Z,95584.41
2022-09-07T09:28:58.783Z,95582.06
2022-09-07T09:31:36.526Z,95580.78
2022-09-07T09:34:13.705Z,95584.63
2022-09-07T09:36:48.853Z,95580.72
2022-09-07T09:39:36.569Z,95573.03
2022-09-07T09:42:24.805Z,95575.53
2022-09-07T09:45:04.153Z,95568.38
2022-09-07T09:47:36.914Z,95586.00
2022-09-07T09:52:28.892Z,95570.13
2022-09-07T09:53:24.883Z,95579.41
2022-09-07T09:55:55.154Z,95577.66
2022-09-07T10:01:33.532Z,95571.81
2022-09-07T10:04:32.927Z,95579.72
2022-09-07T10:07:18.440Z,95575.38
2022-09-07T10:09:53.632Z,95566.88
2022-09-07T10:12:30.381Z,95569.28
2022-09-07T10:15:03.445Z,95561.97
2022-09-07T10:17:37.708Z,95550.91
2022-09-07T10:20:36.481Z,95559.16
2022-09-07T10:23:20.860Z,95563.94
2022-09-07T10:25:51.082Z,95558.34
2022-09-07T10:28:23.918Z,95561.81
2022-09-07T10:31:17.824Z,95559.66
2022-09-07T10:37:03.314Z,95549.03
2022-09-07T10:39:37.983Z,95540.25
2022-09-07T10:42:26.277Z,95543.69
2022-09-07T10:45:09.184Z,95536.06
2022-09-07T10:47:56.051Z,95530.78
2022-09-07T10:50:33.832Z,95525.44
2022-09-07T10:53:46.610Z,95520.00
2022-09-07T10:56:25.544Z,95512.78
2022-09-07T10:59:11.566Z,95501.25
2022-09-07T11:01:55.758Z,95493.22
2022-09-07T11:04:57.094Z,95494.16
2022-09-07T11:07:54.520Z,95481.50
2022-09-07T11:10:39.541Z,95477.91
2022-09-07T11:13:15.512Z,95481.00
2022-09-07T11:15:51.849Z,95479.72
2022-09-07T11:18:29.170Z,95474.09
2022-09-07T11:21:03.562Z,95466.44
2022-09-07T11:23:41.406Z,95467.25
2022-09-07T11:26:18.664Z,95464.88
2022-09-07T11:31:49.784Z,95465.81
2022-09-07T11:34:25.839Z,95454.25
2022-09-07T11:37:04.150Z,95454.13
2022-09-07T11:39:42.491Z,95455.56
2022-09-07T11:45:21.155Z,95435.72
2022-09-07T11:47:59.114Z,95438.16
2022-09-07T11:50:34.869Z,95439.31
2022-09-07T11:53:14.197Z,95447.59
2022-09-07T11:55:49.545Z,95442.84
2022-09-07T11:58:49.364Z,95450.50
2022-09-07T12:01:35.233Z,95449.09
2022-09-07T12:04:40.248Z,95440.84
2022-09-07T12:07:33.514Z,95442.44
2022-09-07T12:10:35.650Z,95435.44
2022-09-07T12:13:41.188Z,95435.47
2022-09-07T12:16:19.493Z,95445.34
2022-09-07T12:19:19.840Z,95434.44
2022-09-07T12:21:57.647Z,95432.88
2022-09-07T12:24:45.818Z,95422.66
2022-09-07T12:27:40.370Z,95422.28
2022-09-07T12:31:00.414Z,95422.25
2022-09-07T12:33:36.601Z,95418.28
2022-09-07T12:36:47.761Z,95423.84
2022-09-07T12:39:25.761Z,95413.56
2022-09-07T12:42:38.941Z,95417.38
2022-09-07T12:45:52.789Z,95410.47
2022-09-07T12:48:50.851Z,95414.44
2022-09-07T12:54:36.840Z,95414.44
2022-09-07T12:57:30.145Z,95406.72
2022-09-07T13:00:15.035Z,95404.03
2022-09-07T13:09:35.466Z,95393.78
2022-09-07T13:15:52.805Z,95385.97
2022-09-07T13:18:44.377Z,95383.56
2022-09-07T13:21:43.651Z,95379.25
2022-09-07T13:24:47.339Z,95374.72
2022-09-07T13:27:43.727Z,95370.72
2022-09-07T13:30:37.327Z,95359.16
2022-09-07T13:33:55.316Z,95355.78
2022-09-07T13:36:40.214Z,95350.06
2022-09-07T13:39:16.777Z,95353.56
2022-09-07T13:41:54.261Z,95348.56
2022-09-07T13:44:28.528Z,95340.75
2022-09-07T13:47:20.181Z,95348.16
2022-09-07T13:50:16.678Z,95337.66
2022-09-07T13:53:51.837Z,95328.84
2022-09-07T13:56:37.687Z,95329.41
2022-09-07T13:59:27.749Z,95324.63
2022-09-07T14:01:58.880Z,95326.00
2022-09-07T14:04:35.367Z,95325.03
2022-09-07T14:07:07.821Z,95318.00
2022-09-07T14:09:37.240Z,95321.13
2022-09-07T14:12:16.881Z,95313.72
2022-09-07T14:14:46.747Z,95318.88
2022-09-07T14:17:20.222Z,95319.34
2022-09-07T14:19:51.497Z,95316.47
2022-09-07T14:22:28.262Z,95317.41
2022-09-07T14:25:01.292Z,95313.88
2022-09-07T14:27:36.867Z,95312.38
2022-09-07T14:30:28.094Z,95309.94
2022-09-07T14:33:03.020Z,95308.69
2022-09-07T14:35:36.244Z,95303.31
2022-09-07T14:39:04.013Z,95305.56
2022-09-07T14:41:14.672Z,95304.56
2022-09-07T14:43:56.141Z,95311.41
2022-09-07T14:46:28.909Z,95292.53
2022-09-07T14:49:01.660Z,95281.31
2022-09-07T14:51:37.189Z,95279.75
2022-09-07T14:54:10.080Z,95278.25
2022-09-07T14:56:42.656Z,95280.63
2022-09-07T14:59:34.209Z,95276.44
2022-09-07T15:02:37.732Z,95280.28
2022-09-07T15:05:29.227Z,95274.31
2022-09-07T15:08:01.455Z,95278.47
2022-09-07T15:10:41.234Z,95278.09
2022-09-07T15:13:34.155Z,95284.47
2022-09-07T15:16:06.481Z,95285.31
2022-09-07T15:18:57.129Z,95287.06
2022-09-07T15:21:30.442Z,95282.88
2022-09-07T15:24:02.429Z,95280.19
2022-09-07T15:29:32.378Z,95272.00
2022-09-07T15:32:04.691Z,95268.19
2022-09-07T15:34:34.783Z,95267.22
2022-09-07T15:38:01.241Z,95261.06
2022-09-07T15:39:54.835Z,95264.75
2022-09-07T15:45:16.392Z,95253.47
2022-09-07T15:47:52.218Z,95261.75
2022-09-07T15:50:47.280Z,95254.56
2022-09-07T15:56:07.549Z,95243.59
2022-09-07T15:58:38.286Z,95247.16
2022-09-07T16:03:59.611Z,95243.16
2022-09-07T16:06:29.521Z,95242.72
2022-09-07T16:08:58.905Z,95243.81
2022-09-07T16:11:29.721Z,95243.69
2022-09-07T16:14:03.759Z,95249.91
2022-09-07T16:19:23.503Z,95248.09
2022-09-07T16:21:57.178Z,95236.09
2022-09-07T16:24:28.230Z,95233.66
2022-09-07T16:26:57.655Z,95231.06
2022-09-07T16:29:28.551Z,95231.63
2022-09-07T16:34:47.292Z,95218.97
2022-09-07T16:37:16.851Z,95221.47
2022-09-07T16:39:46.241Z,95225.06
2022-09-07T16:42:15.755Z,95221.97
2022-09-07T16:44:46.617Z,95221.63
2022-09-07T16:47:16.048Z,95227.53
2022-09-07T16:49:45.465Z,95231.47
2022-09-07T16:52:14.878Z,95218.94
2022-09-07T16:54:44.287Z,95219.81
2022-09-07T16:57:15.607Z,95220.22
2022-09-07T16:59:46.375Z,95218.38
2022-09-07T17:02:18.337Z,95209.41
2022-09-07T17:04:48.076Z,95213.81
2022-09-07T17:07:17.513Z,95219.72
2022-09-07T17:09:47.053Z,95216.22
2022-09-07T17:12:16.419Z,95215.91
2022-09-07T17:14:47.242Z,95213.72
2022-09-07T17:17:17.178Z,95212.69
2022-09-07T17:19:46.941Z,95207.31
2022-09-07T17:22:16.511Z,95215.59
2022-09-07T17:24:46.448Z,95208.28
2022-09-07T17:27:16.168Z,95206.41
2022-09-07T17:29:46.894Z,95206.16
2022-09-07T17:32:31.739Z,95205.88
2022-09-07T17:35:01.274Z,95194.56
2022-09-07T17:37:30.868Z,95199.84
2022-09-07T17:40:00.406Z,95195.28
2022-09-07T17:45:21.214Z,95192.88
2022-09-07T17:47:50.555Z,95198.03
2022-09-07T17:50:19.942Z,95199.31
2022-09-07T17:52:52.681Z,95210.69
2022-09-07T17:55:22.694Z,95208.69
2022-09-07T17:57:52.052Z,95210.50
2022-09-07T18:00:22.933Z,95202.69
2022-09-07T18:02:52.372Z,95203.81
2022-09-07T18:05:21.781Z,95200.31
2022-09-07T18:07:51.118Z,95194.38
2022-09-07T18:10:20.528Z,95201.09
2022-09-07T18:12:49.969Z,95193.81
2022-09-07T18:15:22.050Z,95193.25
2022-09-07T18:17:53.146Z,95189.78
2022-09-07T18:20:24.146Z,95194.56
2022-09-07T18:22:54.039Z,95188.06
2022-09-07T18:25:24.514Z,95197.81
2022-09-07T18:30:43.657Z,95192.41
2022-09-07T18:33:14.743Z,95189.66
2022-09-07T18:35:46.903Z,95188.28
2022-09-07T18:38:16.323Z,95200.06
2022-09-07T18:40:47.967Z,95202.69
2022-09-07T18:43:17.422Z,95201.97
2022-09-07T18:45:46.891Z,95198.97
2022-09-07T18:48:18.077Z,95193.72
2022-09-07T18:50:54.949Z,95196.88
2022-09-07T18:53:24.326Z,95197.72
2022-09-07T18:55:53.745Z,95192.31
2022-09-07T18:58:24.415Z,95198.19
2022-09-07T19:00:58.195Z,95207.84
2022-09-07T19:03:29.215Z,95200.03
2022-09-07T19:06:00.133Z,95207.13
2022-09-07T19:08:32.833Z,95213.88
2022-09-07T19:11:07.626Z,95213.59
2022-09-07T19:13:38.561Z,95219.06
2022-09-07T19:16:13.240Z,95223.78
2022-09-07T19:18:49.579Z,95222.34
2022-09-07T19:21:23.470Z,95224.44
2022-09-07T19:23:57.271Z,95230.84
2022-09-07T19:26:29.476Z,95229.88
2022-09-07T19:29:01.891Z,95225.72
2022-09-07T19:31:32.469Z,95229.16
2022-09-07T19:34:04.509Z,95219.06
2022-09-07T19:36:35.068Z,95220.66
2022-09-07T19:39:05.517Z,95220.22
2022-09-07T19:41:35.304Z,95220.22
2022-09-07T19:44:04.728Z,95220.06
2022-09-07T19:46:34.231Z,95217.19
2022-09-07T19:49:05.636Z,95215.91
2022-09-07T19:51:36.851Z,95209.97
2022-09-07T19:54:07.399Z,95216.03
2022-09-07T19:56:39.619Z,95209.78
2022-09-07T19:59:09.107Z,95214.91
2022-09-07T20:01:40.478Z,95202.09
2022-09-07T20:04:19.001Z,95195.88
2022-09-07T20:06:50.509Z,95197.00
2022-09-07T20:09:21.322Z,95195.38
2022-09-07T20:11:50.875Z,95191.88
2022-09-07T20:14:20.628Z,95182.91
2022-09-07T20:16:50.197Z,95178.91
2022-09-07T20:19:20.921Z,95169.94
2022-09-07T20:21:55.535Z,95164.50
2022-09-07T20:24:25.170Z,95148.97
2022-09-07T20:26:54.647Z,95147.06
2022-09-07T20:29:27.718Z,95145.94
2022-09-07T20:31:59.783Z,95144.66
2022-09-07T20:34:32.059Z,95143.06
2022-09-07T20:37:02.065Z,95140.97
2022-09-07T20:39:34.652Z,95145.16
2022-09-07T20:42:08.819Z,95137.31
2022-09-07T20:44:38.191Z,95136.84
2022-09-07T20:47:07.732Z,95130.13
2022-09-07T20:49:39.574Z,95129.00
2022-09-07T20:52:08.931Z,95132.53
2022-09-07T20:54:38.780Z,95131.56
2022-09-07T20:57:08.189Z,95122.13
2022-09-07T20:59:37.533Z,95135.25
2022-09-07T21:02:07.111Z,95132.06
2022-09-07T21:04:38.009Z,95123.09
2022-09-07T21:07:07.377Z,95114.13
2022-09-07T21:09:36.844Z,95110.63
2022-09-07T21:12:06.557Z,95102.47
2022-09-07T21:14:35.933Z,95103.56
2022-09-07T21:17:05.606Z,95102.47
2022-09-07T21:19:36.802Z,95097.81
2022-09-07T21:22:07.545Z,95089.34
2022-09-07T21:24:37.041Z,95082.44
2022-09-07T21:27:07.634Z,95072.03
2022-09-07T21:29:37.077Z,95073.78
2022-09-07T21:32:06.829Z,95066.91
2022-09-07T21:34:36.328Z,95060.03
2022-09-07T21:37:07.118Z,95061.63
2022-09-07T21:39:36.618Z,95070.09
2022-09-07T21:42:06.273Z,95065.78
2022-09-07T21:44:35.721Z,95071.06
2022-09-07T21:47:05.397Z,95070.28
2022-09-07T21:49:34.942Z,95073.78
2022-09-07T21:52:04.707Z,95082.44
2022-09-07T21:54:35.407Z,95083.88
2022-09-07T21:57:05.389Z,95093.63
2022-09-07T21:59:35.220Z,95108.03
2022-09-07T22:02:05.488Z,95142.09
2022-09-07T22:04:34.910Z,95177.81
2022-09-07T22:07:04.285Z,95190.59
2022-09-07T22:09:35.343Z,95187.81
2022-09-07T22:12:05.397Z,95187.28
2022-09-07T22:14:35.000Z,95186.44
2022-09-07T22:17:04.405Z,95179.75
2022-09-07T22:19:33.756Z,95170.06
2022-09-07T22:22:03.163Z,95184.53
2022-09-07T22:24:36.657Z,95176.63
2022-09-07T22:27:07.363Z,95182.28
2022-09-07T22:29:36.745Z,95180.78
2022-09-07T22:32:06.301Z,95187.66
2022-09-07T22:34:35.658Z,95187.44
2022-09-07T22:37:05.116Z,95189.63
2022-09-07T22:39:35.914Z,95180.91
2022-09-07T22:42:05.933Z,95169.09
2022-09-07T22:44:35.292Z,95168.66
2022-09-07T22:47:04.994Z,95171.41
2022-09-07T22:49:34.316Z,95182.47
2022-09-07T22:52:04.340Z,95181.19
2022-09-07T22:54:35.116Z,95174.16
2022-09-07T22:57:05.239Z,95169.81
2022-09-07T22:59:34.944Z,95164.53
2022-09-07T23:02:05.084Z,95170.31
2022-09-07T23:04:34.650Z,95167.75
2022-09-07T23:07:06.539Z,95161.31
2022-09-07T23:09:37.274Z,95163.38
2022-09-07T23:12:07.272Z,95153.94
2022-09-07T23:14:37.055Z,95167.34
2022-09-07T23:17:06.543Z,95163.84
2022-09-07T23:19:36.459Z,95130.59
2022-09-07T23:22:07.747Z,95108.06
2022-09-07T23:24:41.144Z,95097.81
2022-09-07T23:27:10.485Z,95082.97
2022-09-07T23:29:39.899Z,95086.63
2022-09-07T23:32:09.300Z,95097.84
2022-09-07T23:34:38.663Z,95105.97
2022-09-07T23:37:08.124Z,95113.16
2022-09-07T23:39:40.244Z,95111.88
2022-09-07T23:42:09.765Z,95112.97
2022-09-07T23:44:39.127Z,95110.75
2022-09-07T23:47:08.688Z,95113.31
2022-09-07T23:49:38.282Z,95122.72
2022-09-07T23:52:07.813Z,95124.16
2022-09-07T23:54:38.947Z,95125.28
2022-09-07T23:57:08.326Z,95139.47
2022-09-07T23:59:37.646Z,95137.75
